Time;durP1;ratioP1;P1;durP2;ratioP2;P2;SDS_P1;SDS_P2;PMS_P1;PMS_P2;Temp;Humidity;BMP_temperature;BMP_pressure;BME280_temperature;BME280_humidity;BME280_pressure;Samples;Min_cycle;Max_cycle;Signal;HPM_P1;HPM_P2
2023/05/28 00:01:06;;;;;;;18.27;6.03;;;11.20;99.90;;;;;;5056484;28;20075;-76
2023/05/28 00:03:32;;;;;;;13.18;4.80;;;11.20;99.90;;;;;;5045182;28;20117;-76
2023/05/28 00:05:58;;;;;;;14.40;5.05;;;11.20;99.90;;;;;;5044217;28;20505;-76
2023/05/28 00:08:25;;;;;;;18.60;5.85;;;11.20;99.90;;;;;;5039021;28;20040;-76
2023/05/28 00:10:51;;;;;;;16.38;5.50;;;11.20;99.90;;;;;;5061450;28;20044;-76
2023/05/28 00:13:17;;;;;;;12.57;4.93;;;11.20;99.90;;;;;;5056378;28;20091;-76
2023/05/28 00:15:44;;;;;;;16.42;5.10;;;11.30;99.90;;;;;;5035815;28;20060;-76
2023/05/28 00:18:14;;;;;;;18.88;5.10;;;11.30;99.90;;;;;;5039092;28;20055;-76
2023/05/28 00:20:40;;;;;;;15.43;5.15;;;11.30;99.90;;;;;;5057027;28;20079;-76
2023/05/28 00:23:06;;;;;;;15.90;5.45;;;11.30;99.90;;;;;;5059604;28;20037;-76
2023/05/28 00:25:32;;;;;;;17.33;5.25;;;11.30;99.90;;;;;;5058471;28;20041;-76
2023/05/28 00:27:57;;;;;;;17.35;5.88;;;11.30;99.90;;;;;;5026642;28;20483;-76
2023/05/28 00:30:24;;;;;;;16.50;5.68;;;11.30;99.90;;;;;;5009273;28;20044;-76
2023/05/28 00:32:50;;;;;;;18.63;5.88;;;11.30;99.90;;;;;;5043877;28;20048;-76
2023/05/28 00:35:16;;;;;;;15.32;5.60;;;11.30;99.90;;;;;;5039934;28;20041;-76
2023/05/28 00:37:42;;;;;;;14.98;5.35;;;11.30;99.90;;;;;;5035823;28;20041;-76
2023/05/28 00:40:08;;;;;;;17.65;5.43;;;12.40;99.90;;;;;;5056372;28;20044;-76
2023/05/28 00:42:34;;;;;;;18.42;5.57;;;11.30;99.90;;;;;;5027667;28;20430;-76
2023/05/28 00:45:00;;;;;;;13.40;4.75;;;11.30;99.90;;;;;;5043933;28;20043;-76
2023/05/28 00:47:26;;;;;;;18.08;5.25;;;11.30;99.90;;;;;;5043331;28;20043;-76
2023/05/28 00:49:54;;;;;;;13.23;5.25;;;11.30;99.90;;;;;;5057266;28;20155;-76
2023/05/28 00:52:21;;;;;;;15.43;5.70;;;11.30;99.90;;;;;;5043409;28;20045;-76
2023/05/28 00:54:48;;;;;;;16.83;5.32;;;11.30;99.90;;;;;;5028624;28;20048;-76
2023/05/28 00:57:14;;;;;;;18.23;5.63;;;11.30;99.90;;;;;;5044453;28;20040;-76
2023/05/28 00:59:42;;;;;;;20.63;6.22;;;11.30;99.90;;;;;;5060805;28;20063;-76
2023/05/28 01:02:08;;;;;;;18.45;5.55;;;11.30;99.90;;;;;;5055806;28;20040;-76
2023/05/28 01:04:34;;;;;;;16.33;5.35;;;11.30;99.90;;;;;;5019300;28;20040;-76
2023/05/28 01:07:01;;;;;;;15.98;5.63;;;11.30;99.90;;;;;;5038919;28;20040;-76
2023/05/28 01:09:27;;;;;;;16.70;6.00;;;11.30;99.90;;;;;;5039811;28;20120;-76
2023/05/28 01:11:54;;;;;;;15.05;5.50;;;11.20;99.90;;;;;;5028610;28;20075;-76
2023/05/28 01:14:21;;;;;;;19.20;6.10;;;11.20;99.90;;;;;;5059560;28;20405;-76
2023/05/28 01:16:51;;;;;;;16.98;6.10;;;11.20;99.90;;;;;;5057991;28;20059;-76
2023/05/28 01:19:18;;;;;;;16.13;6.53;;;11.30;99.90;;;;;;5058084;28;20095;-76
2023/05/28 01:21:47;;;;;;;16.35;6.25;;;11.30;99.90;;;;;;5042121;28;20038;-76
2023/05/28 01:24:13;;;;;;;19.65;6.75;;;11.30;99.90;;;;;;5062005;28;20335;-76
2023/05/28 01:26:40;;;;;;;15.40;5.70;;;11.20;99.90;;;;;;5042819;28;20068;-76
2023/05/28 01:29:17;;;;;;;22.42;6.13;;;11.20;99.90;;;;;;5057661;28;20044;-76
2023/05/28 01:31:43;;;;;;;15.27;5.53;;;11.20;99.90;;;;;;5046846;28;20059;-76
2023/05/28 01:34:12;;;;;;;14.45;5.72;;;11.20;99.90;;;;;;5031054;28;20048;-76
2023/05/28 01:36:48;;;;;;;15.27;5.68;;;11.20;99.90;;;;;;5061677;28;20040;-76
2023/05/28 01:39:16;;;;;;;16.90;5.57;;;11.20;99.90;;;;;;5040190;28;20131;-76
2023/05/28 01:41:45;;;;;;;16.70;5.90;;;11.20;99.90;;;;;;5062143;28;20056;-76
2023/05/28 01:44:13;;;;;;;16.30;5.70;;;11.20;99.90;;;;;;5063631;28;20117;-76
2023/05/28 01:46:41;;;;;;;15.50;5.88;;;11.10;99.90;;;;;;5061072;28;20489;-76
2023/05/28 01:49:09;;;;;;;18.92;6.45;;;11.10;99.90;;;;;;5061684;28;20037;-76
2023/05/28 01:51:35;;;;;;;17.08;5.75;;;11.20;99.90;;;;;;5064634;28;20032;-76
2023/05/28 01:54:01;;;;;;;14.50;5.57;;;11.20;99.90;;;;;;5012821;28;20040;-76
2023/05/28 01:56:27;;;;;;;15.27;5.70;;;11.20;99.90;;;;;;5038357;28;20450;-76
2023/05/28 01:58:53;;;;;;;17.35;5.57;;;11.20;99.90;;;;;;5055975;28;20063;-76
2023/05/28 02:01:28;;;;;;;20.30;5.78;;;11.20;99.90;;;;;;5059352;28;20090;-76
2023/05/28 02:03:57;;;;;;;19.40;5.60;;;11.20;99.90;;;;;;5045553;28;20469;-76
2023/05/28 02:06:24;;;;;;;16.63;5.18;;;11.20;99.90;;;;;;5063428;28;20067;-76
2023/05/28 02:08:52;;;;;;;19.05;5.72;;;11.20;99.90;;;;;;5061142;28;20118;-76
2023/05/28 02:11:18;;;;;;;16.05;6.20;;;11.20;99.90;;;;;;5063238;28;20080;-76
2023/05/28 02:13:44;;;;;;;16.42;5.35;;;11.20;99.90;;;;;;5045755;28;20040;-76
2023/05/28 02:16:17;;;;;;;18.52;6.25;;;11.20;99.90;;;;;;5031014;28;20064;-76
2023/05/28 02:18:44;;;;;;;15.82;5.70;;;11.20;99.90;;;;;;5061467;28;20412;-76
2023/05/28 02:21:12;;;;;;;21.13;6.55;;;11.20;99.90;;;;;;5044699;28;20048;-76
2023/05/28 02:23:45;;;;;;;22.10;6.25;;;11.20;99.90;;;;;;5063969;28;20057;-76
2023/05/28 02:26:11;;;;;;;16.92;5.88;;;11.20;99.90;;;;;;5056914;28;20102;-76
2023/05/28 02:28:37;;;;;;;17.48;6.15;;;11.20;99.90;;;;;;5045388;28;20044;-76
2023/05/28 02:31:03;;;;;;;16.90;5.85;;;11.20;99.90;;;;;;5060847;28;20063;-76
2023/05/28 02:33:29;;;;;;;16.85;6.43;;;11.20;99.90;;;;;;5062569;28;20111;-76
2023/05/28 02:35:55;;;;;;;17.70;5.63;;;11.20;99.90;;;;;;5062032;28;20143;-76
2023/05/28 02:38:21;;;;;;;14.75;5.80;;;11.20;99.90;;;;;;5063342;28;20045;-76
2023/05/28 02:40:47;;;;;;;17.98;5.97;;;11.20;99.90;;;;;;5028031;28;20524;-76
2023/05/28 02:43:13;;;;;;;15.40;5.75;;;11.20;99.90;;;;;;5047666;28;20157;-76
2023/05/28 02:45:38;;;;;;;23.75;6.28;;;11.20;99.90;;;;;;5030600;28;20286;-76
2023/05/28 02:48:04;;;;;;;16.55;6.35;;;11.20;99.90;;;;;;5061770;28;20036;-76
2023/05/28 02:50:30;;;;;;;15.52;5.60;;;11.20;99.90;;;;;;5046207;28;20044;-76
2023/05/28 02:52:56;;;;;;;19.33;6.15;;;11.20;99.90;;;;;;5064257;28;20198;-76
2023/05/28 02:55:22;;;;;;;16.38;5.70;;;11.10;99.90;;;;;;5063972;28;20036;-76
2023/05/28 02:57:48;;;;;;;16.27;6.22;;;11.10;99.90;;;;;;5060982;28;20080;-76
2023/05/28 03:00:14;;;;;;;19.85;5.70;;;11.10;99.90;;;;;;5043349;28;20500;-76
2023/05/28 03:02:39;;;;;;;19.15;6.38;;;11.10;99.90;;;;;;5043737;28;20443;-76
2023/05/28 03:05:05;;;;;;;17.67;6.13;;;11.20;99.90;;;;;;5044080;28;20071;-76
2023/05/28 03:07:31;;;;;;;16.35;5.75;;;11.20;99.90;;;;;;5031139;28;20358;-76
2023/05/28 03:09:58;;;;;;;17.88;5.85;;;11.10;99.90;;;;;;5030135;28;20043;-76
2023/05/28 03:12:24;;;;;;;17.83;5.97;;;11.20;99.90;;;;;;5043687;28;20435;-76
2023/05/28 03:14:50;;;;;;;21.20;6.22;;;11.20;99.90;;;;;;5060426;28;20047;-76
2023/05/28 03:17:15;;;;;;;17.13;5.72;;;11.10;99.90;;;;;;5060401;28;20573;-76
2023/05/28 03:19:42;;;;;;;19.27;5.63;;;11.20;99.90;;;;;;5013038;28;20048;-76
2023/05/28 03:22:07;;;;;;;16.95;5.35;;;11.20;99.90;;;;;;5057336;28;20504;-76
2023/05/28 03:24:34;;;;;;;16.77;5.60;;;11.20;99.90;;;;;;5044310;28;20033;-76
2023/05/28 03:27:01;;;;;;;16.25;5.95;;;11.10;99.90;;;;;;5056730;28;20099;-76
2023/05/28 03:29:27;;;;;;;20.77;6.10;;;11.20;99.90;;;;;;5059753;28;20045;-76
2023/05/28 03:31:52;;;;;;;19.27;6.25;;;11.20;99.90;;;;;;5058284;28;20044;-76
2023/05/28 03:34:18;;;;;;;17.38;5.90;;;11.20;99.90;;;;;;5041730;28;20541;-76
2023/05/28 03:36:44;;;;;;;18.85;5.63;;;11.20;99.90;;;;;;5075206;28;20055;-76
2023/05/28 03:39:10;;;;;;;15.88;5.72;;;11.20;99.90;;;;;;5043626;28;20037;-76
2023/05/28 03:41:36;;;;;;;15.00;5.65;;;11.20;99.90;;;;;;5044673;28;20079;-76
2023/05/28 03:44:04;;;;;;;19.60;5.72;;;11.20;99.90;;;;;;5044602;28;20086;-76
2023/05/28 03:46:30;;;;;;;15.98;5.65;;;11.20;99.90;;;;;;5038987;28;20481;-75
2023/05/28 03:48:55;;;;;;;14.93;5.97;;;11.20;99.90;;;;;;5045573;28;20091;-76
2023/05/28 03:51:23;;;;;;;16.92;5.75;;;11.20;99.90;;;;;;5043894;28;20047;-76
2023/05/28 03:53:49;;;;;;;16.17;6.25;;;11.10;99.90;;;;;;5040757;28;20068;-76
2023/05/28 03:56:15;;;;;;;16.15;6.43;;;11.10;99.90;;;;;;5043003;28;20685;-76
2023/05/28 03:58:41;;;;;;;15.23;6.05;;;11.10;99.90;;;;;;5059253;28;20048;-76
2023/05/28 04:01:07;;;;;;;18.67;6.07;;;11.10;99.90;;;;;;5039496;28;20094;-76
2023/05/28 04:03:33;;;;;;;18.77;5.82;;;11.10;99.90;;;;;;5039661;28;20522;-76
2023/05/28 04:06:00;;;;;;;16.48;5.80;;;11.10;99.90;;;;;;5022490;28;20075;-76
2023/05/28 04:08:26;;;;;;;16.23;6.32;;;11.10;99.90;;;;;;5058547;28;20517;-76
2023/05/28 04:10:52;;;;;;;13.65;5.50;;;11.10;99.90;;;;;;5029248;28;20043;-76
2023/05/28 04:13:17;;;;;;;16.80;5.60;;;11.10;99.90;;;;;;5056624;28;20044;-76
2023/05/28 04:15:43;;;;;;;16.67;5.57;;;11.10;99.90;;;;;;5062321;28;20063;-76
2023/05/28 04:18:09;;;;;;;15.23;5.38;;;11.10;99.90;;;;;;5058430;28;20044;-76
2023/05/28 04:20:38;;;;;;;19.58;6.28;;;11.10;99.90;;;;;;5058706;28;20049;-76
2023/05/28 04:23:03;;;;;;;17.33;5.70;;;11.20;99.90;;;;;;5060386;28;20399;-76
2023/05/28 04:25:29;;;;;;;19.25;6.05;;;11.20;99.90;;;;;;5041871;28;20040;-76
2023/05/28 04:27:56;;;;;;;16.92;5.30;;;11.20;99.90;;;;;;5057503;28;20061;-76
2023/05/28 04:30:23;;;;;;;17.63;5.63;;;11.20;99.90;;;;;;5056403;28;20037;-76
2023/05/28 04:32:53;;;;;;;16.77;5.70;;;11.30;99.90;;;;;;5057854;28;20106;-76
2023/05/28 04:35:19;;;;;;;17.55;5.55;;;11.30;99.90;;;;;;5056873;28;20123;-76
2023/05/28 04:37:45;;;;;;;14.90;5.15;;;11.30;99.90;;;;;;5029834;28;20098;-76
2023/05/28 04:40:14;;;;;;;18.33;5.68;;;11.40;99.90;;;;;;5040590;28;20036;-76
2023/05/28 04:42:40;;;;;;;16.73;5.57;;;11.50;99.90;;;;;;5057452;28;20064;-76
2023/05/28 04:45:10;;;;;;;18.70;5.90;;;11.50;99.90;;;;;;5056526;28;20037;-76
2023/05/28 04:47:36;;;;;;;17.08;6.22;;;11.50;99.90;;;;;;5040274;28;20040;-76
2023/05/28 04:50:04;;;;;;;17.50;5.82;;;11.60;99.90;;;;;;5055869;28;20032;-76
2023/05/28 04:52:35;;;;;;;14.32;5.70;;;11.60;99.90;;;;;;5061153;28;20725;-76
2023/05/28 04:55:01;;;;;;;15.50;5.53;;;11.70;99.90;;;;;;5035842;28;20521;-76
2023/05/28 04:57:27;;;;;;;19.17;6.07;;;11.60;99.90;;;;;;5024840;28;20041;-76
2023/05/28 04:59:52;;;;;;;16.40;5.68;;;11.70;99.90;;;;;;5056809;28;20048;-76
2023/05/28 05:02:18;;;;;;;16.08;5.85;;;11.70;99.90;;;;;;5034070;28;20047;-76
2023/05/28 05:04:45;;;;;;;18.73;5.85;;;11.70;99.90;;;;;;5061491;28;20040;-76
2023/05/28 05:07:14;;;;;;;17.10;6.45;;;11.70;99.90;;;;;;5064220;28;20039;-76
2023/05/28 05:09:40;;;;;;;15.30;5.43;;;11.80;99.90;;;;;;5042187;28;20048;-76
2023/05/28 05:12:07;;;;;;;12.95;5.38;;;11.80;99.90;;;;;;5045974;28;20044;-76
2023/05/28 05:14:33;;;;;;;17.83;5.10;;;11.80;99.90;;;;;;5031154;28;20281;-76
2023/05/28 05:16:59;;;;;;;14.73;5.75;;;11.80;99.90;;;;;;5043322;28;20036;-76
2023/05/28 05:19:25;;;;;;;16.98;5.82;;;11.80;99.90;;;;;;5064643;28;20044;-76
2023/05/28 05:21:51;;;;;;;15.82;5.63;;;11.90;99.90;;;;;;5060991;28;20044;-76
2023/05/28 05:24:17;;;;;;;15.38;5.32;;;11.90;99.90;;;;;;5063403;28;20033;-76
2023/05/28 05:26:43;;;;;;;17.50;5.45;;;12.10;99.90;;;;;;5040670;28;20407;-76
2023/05/28 05:29:08;;;;;;;17.67;5.60;;;12.20;99.90;;;;;;5062139;28;20409;-76
2023/05/28 05:31:34;;;;;;;15.70;5.35;;;12.30;99.90;;;;;;5046862;28;20432;-76
2023/05/28 05:34:00;;;;;;;14.30;5.85;;;12.50;99.90;;;;;;5042149;28;20114;-76
2023/05/28 05:36:26;;;;;;;18.77;5.93;;;12.60;99.90;;;;;;5047268;28;20032;-76
2023/05/28 05:38:51;;;;;;;14.98;5.40;;;12.70;99.90;;;;;;5061481;28;20094;-76
2023/05/28 05:41:17;;;;;;;16.98;5.22;;;12.80;99.90;;;;;;5065204;28;20535;-76
2023/05/28 05:43:43;;;;;;;16.17;4.85;;;13.00;99.90;;;;;;5059785;28;20041;-76
2023/05/28 05:46:09;;;;;;;15.23;5.13;;;13.10;99.90;;;;;;5042941;28;20064;-77
2023/05/28 05:48:35;;;;;;;18.08;5.38;;;13.20;99.90;;;;;;5027543;28;20036;-76
2023/05/28 05:51:02;;;;;;;19.63;5.07;;;13.40;99.90;;;;;;5048837;28;20459;-76
2023/05/28 05:53:28;;;;;;;16.42;6.22;;;13.40;99.90;;;;;;5048843;28;20036;-76
2023/05/28 05:55:54;;;;;;;17.58;5.45;;;13.60;99.90;;;;;;5047055;28;20040;-77
2023/05/28 05:58:20;;;;;;;13.90;4.78;;;13.60;99.90;;;;;;5048044;28;20037;-76
2023/05/28 06:00:47;;;;;;;14.52;4.97;;;13.70;99.90;;;;;;5044924;28;20044;-76
2023/05/28 06:03:14;;;;;;;13.43;5.20;;;13.80;99.90;;;;;;5061149;28;20045;-77
2023/05/28 06:05:40;;;;;;;14.88;5.22;;;13.90;99.90;;;;;;5044985;28;20051;-76
2023/05/28 06:08:06;;;;;;;15.98;5.07;;;13.90;99.90;;;;;;5042990;28;20165;-76
2023/05/28 06:10:31;;;;;;;17.77;5.47;;;14.00;99.90;;;;;;5043654;28;20040;-76
2023/05/28 06:13:01;;;;;;;17.13;5.53;;;14.10;99.90;;;;;;5047012;28;20155;-76
2023/05/28 06:15:27;;;;;;;14.50;5.03;;;14.10;99.90;;;;;;5061258;28;20045;-76
2023/05/28 06:17:54;;;;;;;14.30;5.05;;;14.20;99.90;;;;;;5041370;28;20047;-76
2023/05/28 06:20:20;;;;;;;15.43;5.30;;;14.30;99.90;;;;;;5062221;28;20513;-76
2023/05/28 06:22:46;;;;;;;13.63;5.05;;;14.40;99.90;;;;;;5036810;28;20112;-76
2023/05/28 06:25:11;;;;;;;16.90;5.72;;;14.50;99.90;;;;;;5013567;28;20048;-76
2023/05/28 06:27:37;;;;;;;13.48;4.95;;;14.70;99.90;;;;;;5027928;28;20471;-77
2023/05/28 06:30:04;;;;;;;15.75;5.22;;;14.70;99.90;;;;;;5057318;28;20635;-77
2023/05/28 06:32:31;;;;;;;14.02;5.13;;;14.80;99.90;;;;;;5044275;28;20093;-76
2023/05/28 06:34:57;;;;;;;13.90;4.80;;;14.90;99.90;;;;;;5059885;28;20257;-75
2023/05/28 06:37:22;;;;;;;13.65;4.65;;;15.00;99.90;;;;;;5058233;28;20195;-75
2023/05/28 06:39:48;;;;;;;13.82;4.72;;;15.10;99.90;;;;;;5059511;28;20040;-75
2023/05/28 06:42:14;;;;;;;14.98;5.10;;;15.20;99.90;;;;;;5038557;28;20045;-75
2023/05/28 06:44:40;;;;;;;12.02;4.93;;;15.20;99.90;;;;;;5041449;28;20081;-76
2023/05/28 06:47:06;;;;;;;13.43;4.43;;;15.20;99.90;;;;;;5056692;28;20125;-76
2023/05/28 06:49:32;;;;;;;13.25;4.57;;;15.30;99.90;;;;;;5056290;28;20545;-76
2023/05/28 06:51:58;;;;;;;12.50;4.00;;;15.20;99.90;;;;;;5044671;28;20037;-76
2023/05/28 06:54:24;;;;;;;12.95;4.15;;;15.20;99.90;;;;;;5040889;28;20047;-76
2023/05/28 06:56:49;;;;;;;20.25;4.63;;;15.20;99.90;;;;;;5064314;28;20036;-76
2023/05/28 06:59:15;;;;;;;11.75;3.88;;;15.30;99.90;;;;;;5044880;28;20441;-77
2023/05/28 07:01:41;;;;;;;12.23;3.67;;;15.20;99.90;;;;;;5060883;28;20072;-76
2023/05/28 07:04:07;;;;;;;12.40;4.45;;;15.20;99.90;;;;;;5058616;28;20071;-76
2023/05/28 07:06:33;;;;;;;11.95;3.92;;;15.20;99.90;;;;;;5053988;28;21103;-76
2023/05/28 07:08:59;;;;;;;10.38;3.85;;;15.30;99.90;;;;;;5055674;28;20036;-75
2023/05/28 07:11:26;;;;;;;10.48;3.67;;;15.30;99.90;;;;;;5060635;28;20429;-76
2023/05/28 07:13:54;;;;;;;13.73;4.60;;;15.40;99.90;;;;;;5042309;28;20735;-76
2023/05/28 07:16:21;;;;;;;13.35;3.90;;;15.40;99.90;;;;;;5044862;28;20512;-76
2023/05/28 07:18:47;;;;;;;11.35;4.18;;;15.50;99.90;;;;;;5036337;28;20117;-75
2023/05/28 07:21:12;;;;;;;10.48;3.60;;;15.60;99.90;;;;;;5006498;28;20052;-75
2023/05/28 07:23:38;;;;;;;10.10;3.17;;;15.60;99.90;;;;;;5058608;28;20070;-75
2023/05/28 07:26:05;;;;;;;12.10;3.60;;;15.70;99.90;;;;;;5028986;28;20479;-76
2023/05/28 07:28:31;;;;;;;11.60;3.63;;;15.80;99.90;;;;;;5060650;28;20105;-76
2023/05/28 07:30:57;;;;;;;10.75;3.33;;;15.80;99.90;;;;;;5061886;28;20482;-76
2023/05/28 07:33:23;;;;;;;10.10;3.25;;;15.80;99.90;;;;;;5063967;28;20047;-76
2023/05/28 07:35:49;;;;;;;10.02;3.30;;;15.90;99.90;;;;;;5062917;28;20485;-75
2023/05/28 07:38:15;;;;;;;9.65;3.35;;;16.00;99.90;;;;;;5061835;28;20394;-75
2023/05/28 07:40:41;;;;;;;10.13;3.40;;;16.20;99.90;;;;;;5025015;28;20049;-76
2023/05/28 07:43:07;;;;;;;10.25;3.28;;;16.20;99.90;;;;;;5063873;28;20068;-75
2023/05/28 07:45:32;;;;;;;8.45;2.97;;;16.20;99.90;;;;;;5032255;28;20502;-75
2023/05/28 07:47:58;;;;;;;11.98;3.35;;;16.30;99.90;;;;;;5064569;28;20957;-75
2023/05/28 07:50:24;;;;;;;10.93;3.55;;;16.30;99.90;;;;;;5046322;28;20068;-75
2023/05/28 07:52:50;;;;;;;10.00;3.08;;;16.40;99.90;;;;;;5063234;28;20138;-75
2023/05/28 07:55:16;;;;;;;10.82;3.60;;;16.50;99.90;;;;;;5047122;28;20071;-75
2023/05/28 07:57:42;;;;;;;12.88;3.50;;;16.60;99.90;;;;;;5035214;28;20133;-75
2023/05/28 08:00:14;;;;;;;9.80;3.20;;;16.60;99.90;;;;;;5005509;28;20043;-75
2023/05/28 08:02:40;;;;;;;10.23;3.38;;;16.70;99.90;;;;;;5043008;28;20048;-75
2023/05/28 08:05:06;;;;;;;10.05;3.17;;;16.70;99.90;;;;;;5059948;28;20446;-75
2023/05/28 08:07:32;;;;;;;8.90;3.42;;;16.80;99.90;;;;;;5063834;28;20221;-74
2023/05/28 08:09:57;;;;;;;10.75;3.42;;;16.90;99.90;;;;;;5062970;28;20033;-75
2023/05/28 08:12:23;;;;;;;13.25;3.90;;;17.00;99.90;;;;;;5046576;28;20037;-76
2023/05/28 08:14:50;;;;;;;11.23;3.40;;;17.10;99.90;;;;;;5057789;28;20513;-75
2023/05/28 08:17:16;;;;;;;8.80;3.60;;;17.10;99.90;;;;;;5047490;28;20498;-75
2023/05/28 08:19:42;;;;;;;10.88;4.03;;;17.10;99.90;;;;;;5062003;28;20565;-75
2023/05/28 08:22:08;;;;;;;10.82;3.60;;;17.20;99.90;;;;;;5029078;28;20179;-75
2023/05/28 08:24:34;;;;;;;9.88;3.55;;;17.20;99.90;;;;;;5043434;28;20056;-75
2023/05/28 08:26:59;;;;;;;11.15;3.80;;;17.30;99.90;;;;;;5030123;28;20051;-76
2023/05/28 08:29:25;;;;;;;10.18;3.53;;;17.30;99.90;;;;;;5060602;28;20508;-75
2023/05/28 08:31:51;;;;;;;9.88;3.67;;;17.30;99.90;;;;;;5063078;28;20048;-75
2023/05/28 08:34:17;;;;;;;9.15;3.45;;;17.40;99.90;;;;;;5062628;28;20391;-74
2023/05/28 08:36:42;;;;;;;9.25;3.50;;;17.40;99.90;;;;;;5056352;28;20041;-75
2023/05/28 08:39:09;;;;;;;9.32;3.50;;;17.50;99.90;;;;;;5042654;28;20044;-75
2023/05/28 08:41:35;;;;;;;10.77;3.90;;;17.60;99.90;;;;;;5046551;28;20589;-75
2023/05/28 08:44:01;;;;;;;11.73;4.03;;;17.60;99.90;;;;;;5048344;28;20123;-75
2023/05/28 08:46:30;;;;;;;11.50;3.65;;;17.50;99.90;;;;;;5048471;28;20506;-75
2023/05/28 08:48:57;;;;;;;13.13;3.72;;;17.50;99.90;;;;;;5066489;28;20117;-74
2023/05/28 08:51:26;;;;;;;10.48;3.78;;;17.50;99.90;;;;;;5067145;28;20036;-75
2023/05/28 08:53:53;;;;;;;10.45;3.70;;;17.60;99.90;;;;;;5049503;28;20044;-75
2023/05/28 08:56:21;;;;;;;11.38;4.38;;;17.70;99.90;;;;;;5050659;28;20445;-75
2023/05/28 08:58:46;;;;;;;11.13;4.38;;;17.80;99.90;;;;;;5065510;28;20028;-75
2023/05/28 09:01:12;;;;;;;11.50;4.60;;;17.90;99.90;;;;;;5060888;28;20044;-74
2023/05/28 09:03:40;;;;;;;10.95;4.28;;;18.00;99.90;;;;;;5057225;28;20119;-76
2023/05/28 09:06:07;;;;;;;12.68;4.35;;;18.10;99.90;;;;;;5061410;28;20378;-74
2023/05/28 09:08:34;;;;;;;10.02;4.13;;;18.10;99.90;;;;;;5066349;28;20036;-74
2023/05/28 09:11:11;;;;;;;11.00;4.35;;;18.10;99.90;;;;;;5041765;28;20174;-74
2023/05/28 09:13:44;;;;;;;11.05;4.55;;;18.30;99.90;;;;;;5059579;28;20044;-75
2023/05/28 09:16:10;;;;;;;10.02;4.03;;;18.40;99.90;;;;;;5044473;28;20395;-77
2023/05/28 09:18:36;;;;;;;11.15;4.95;;;18.40;99.90;;;;;;5055595;28;21663;-77
2023/05/28 09:21:11;;;;;;;12.25;5.22;;;18.40;99.90;;;;;;5041305;28;20045;-79
2023/05/28 09:23:39;;;;;;;14.20;5.25;;;18.30;99.90;;;;;;5058817;28;20036;-77
2023/05/28 09:26:12;;;;;;;13.05;4.60;;;18.30;99.90;;;;;;5061685;28;20048;-77
2023/05/28 09:28:44;;;;;;;11.40;4.88;;;18.40;99.90;;;;;;5045397;28;20063;-75
2023/05/28 09:31:09;;;;;;;9.80;4.60;;;18.50;99.90;;;;;;5028125;28;20402;-74
2023/05/28 09:33:42;;;;;;;14.98;5.53;;;18.60;99.90;;;;;;5042366;28;20348;-74
2023/05/28 09:36:09;;;;;;;12.73;5.22;;;18.70;99.90;;;;;;5058142;28;20425;-76
2023/05/28 09:38:42;;;;;;;12.85;5.15;;;18.70;99.90;;;;;;5042749;28;20055;-75
2023/05/28 09:41:22;;;;;;;13.38;5.00;;;18.70;99.90;;;;;;5040906;28;20048;-76
2023/05/28 09:44:02;;;;;;;11.50;4.93;;;18.70;99.90;;;;;;5044473;28;20040;-75
2023/05/28 09:46:30;;;;;;;13.40;5.00;;;18.70;99.90;;;;;;5056000;28;20039;-76
2023/05/28 09:48:56;;;;;;;10.95;4.80;;;18.80;99.90;;;;;;5059747;28;20410;-76
2023/05/28 09:51:26;;;;;;;13.57;5.03;;;18.80;99.90;;;;;;5061506;28;20066;-76
2023/05/28 09:54:08;;;;;;;11.85;5.07;;;18.80;99.90;;;;;;5061415;28;20044;-76
2023/05/28 09:56:34;;;;;;;12.60;5.60;;;18.90;99.90;;;;;;5063404;28;20529;-76
2023/05/28 09:59:06;;;;;;;15.73;5.78;;;18.90;99.90;;;;;;5060846;28;20036;-75
2023/05/28 10:01:47;;;;;;;39.95;7.78;;;18.90;99.90;;;;;;5030379;28;20052;-76
2023/05/28 10:04:17;;;;;;;13.38;5.47;;;19.00;99.90;;;;;;5061430;28;20032;-76
2023/05/28 10:06:44;;;;;;;18.75;6.53;;;19.10;99.90;;;;;;5062108;28;20094;-77
2023/05/28 10:09:14;;;;;;;12.85;5.47;;;19.20;99.90;;;;;;5062204;28;20037;-76
2023/05/28 10:11:50;;;;;;;12.82;5.70;;;19.30;99.90;;;;;;5064074;28;20123;-76
2023/05/28 10:14:16;;;;;;;12.68;6.47;;;19.30;99.90;;;;;;5057054;28;20070;-77
2023/05/28 10:16:42;;;;;;;11.27;5.82;;;19.30;99.90;;;;;;5061273;28;20047;-78
2023/05/28 10:19:09;;;;;;;12.38;6.22;;;19.20;99.90;;;;;;5043778;28;20048;-75
2023/05/28 10:21:36;;;;;;;12.23;6.47;;;19.30;99.90;;;;;;5064300;28;20071;-76
2023/05/28 10:24:03;;;;;;;15.27;6.80;;;19.30;99.90;;;;;;5044775;28;20045;-76
2023/05/28 10:26:29;;;;;;;12.65;6.68;;;19.50;99.90;;;;;;5046875;28;20123;-75
2023/05/28 10:28:55;;;;;;;12.55;6.72;;;19.60;99.90;;;;;;5062597;28;20490;-75
2023/05/28 10:31:22;;;;;;;19.60;13.70;;;19.60;99.60;;;;;;5065337;28;20490;-75
2023/05/28 10:33:48;;;;;;;13.00;7.05;;;19.60;98.50;;;;;;5046743;28;20410;-75
2023/05/28 10:36:15;;;;;;;13.50;5.82;;;19.60;97.70;;;;;;5064635;28;20033;-75
2023/05/28 10:38:53;;;;;;;11.27;5.32;;;19.60;97.70;;;;;;5061521;28;20056;-75
2023/05/28 10:41:22;;;;;;;11.98;5.70;;;19.60;96.80;;;;;;5057914;28;20063;-75
2023/05/28 10:43:49;;;;;;;11.23;5.13;;;19.70;96.90;;;;;;5062670;28;20466;-76
2023/05/28 10:46:22;;;;;;;10.65;4.95;;;19.70;96.90;;;;;;5065037;28;20151;-75
2023/05/28 10:49:14;;;;;;;10.00;4.60;;;19.70;95.10;;;;;;5061216;28;20447;-76
2023/05/28 10:51:50;;;;;;;9.75;4.10;;;19.70;93.20;;;;;;5063492;28;20041;-77
2023/05/28 10:54:26;;;;;;;12.98;5.03;;;19.70;94.90;;;;;;5064465;28;20082;-76
2023/05/28 10:57:17;;;;;;;10.40;4.22;;;19.80;97.10;;;;;;5044112;28;20040;-85
2023/05/28 10:59:51;;;;;;;14.52;4.88;;;19.80;98.30;;;;;;5056324;28;20163;-80
2023/05/28 11:02:27;;;;;;;10.93;4.05;;;19.80;99.30;;;;;;5061822;28;20043;-81
2023/05/28 11:04:59;;;;;;;12.93;4.00;;;19.90;99.90;;;;;;5064628;28;20032;-81
2023/05/28 11:07:36;;;;;;;11.00;4.28;;;19.90;99.90;;;;;;5058766;28;20048;-81
2023/05/28 11:10:06;;;;;;;10.68;3.60;;;19.80;99.50;;;;;;5059755;28;20033;-82
2023/05/28 11:12:35;;;;;;;10.60;3.45;;;19.90;99.90;;;;;;5062004;28;20041;-79
2023/05/28 11:15:01;;;;;;;13.07;4.07;;;19.90;99.90;;;;;;5034230;28;20044;-78
2023/05/28 11:17:26;;;;;;;9.95;3.42;;;19.90;99.90;;;;;;5040905;28;20115;-76
2023/05/28 11:19:53;;;;;;;11.05;3.60;;;20.00;99.90;;;;;;5044235;28;20131;-77
2023/05/28 11:22:20;;;;;;;9.02;3.03;;;20.00;99.90;;;;;;5025613;28;20194;-76
2023/05/28 11:24:58;;;;;;;9.93;3.38;;;20.10;99.90;;;;;;5040818;28;20061;-80
2023/05/28 11:27:27;;;;;;;11.13;3.70;;;20.20;99.90;;;;;;5062036;28;20079;-76
2023/05/28 11:29:56;;;;;;;9.25;3.22;;;20.10;99.90;;;;;;5042609;28;20092;-78
2023/05/28 11:32:25;;;;;;;10.52;2.95;;;20.10;99.90;;;;;;5059560;28;20065;-80
2023/05/28 11:34:52;;;;;;;11.57;3.92;;;20.10;99.90;;;;;;5057841;28;20052;-76
2023/05/28 11:37:25;;;;;;;10.88;3.53;;;20.40;99.90;;;;;;5057543;28;20032;-83
2023/05/28 11:39:53;;;;;;;10.88;3.53;;;20.10;99.90;;;;;;5040060;28;20052;-82
2023/05/28 11:42:20;;;;;;;12.75;3.88;;;20.20;99.90;;;;;;5060605;28;20464;-83
2023/05/28 11:44:46;;;;;;;12.48;3.75;;;20.10;99.90;;;;;;5054965;28;20036;-76
2023/05/28 11:47:13;;;;;;;10.68;3.53;;;20.20;99.90;;;;;;5056177;28;20054;-77
2023/05/28 11:49:40;;;;;;;11.75;3.30;;;20.20;99.90;;;;;;5057310;28;20082;-77
2023/05/28 11:52:20;;;;;;;9.90;3.47;;;20.20;99.90;;;;;;5053701;28;20072;-76
2023/05/28 11:54:51;;;;;;;13.00;3.65;;;20.20;99.90;;;;;;5051178;28;20072;-77
2023/05/28 11:57:24;;;;;;;9.35;3.60;;;20.20;99.90;;;;;;5057413;28;20036;-77
2023/05/28 12:00:11;;;;;;;10.63;3.40;;;20.20;99.90;;;;;;4358546;28;10000671;-77
2023/05/28 12:02:45;;;;;;;10.35;3.40;;;20.10;99.90;;;;;;5039967;28;20045;-76
2023/05/28 12:05:12;;;;;;;9.68;3.53;;;20.00;99.90;;;;;;5041129;28;20048;-77
2023/05/28 12:07:43;;;;;;;10.30;3.60;;;20.00;99.90;;;;;;5044750;28;20048;-78
2023/05/28 12:10:11;;;;;;;15.68;4.25;;;20.00;99.90;;;;;;5042670;28;20063;-78
2023/05/28 12:12:45;;;;;;;12.13;4.00;;;20.00;99.90;;;;;;5060917;28;20561;-77
2023/05/28 12:15:12;;;;;;;11.55;3.67;;;20.00;99.90;;;;;;5039597;28;20525;-78
2023/05/28 12:17:39;;;;;;;12.18;4.00;;;19.90;99.90;;;;;;5056021;28;20113;-78
2023/05/28 12:20:12;;;;;;;13.48;4.18;;;19.90;99.90;;;;;;5023237;28;20576;-77
2023/05/28 12:22:41;;;;;;;;;;;19.80;99.90;;;;;;5059338;28;20119;-77
2023/05/28 12:25:07;;;;;;;13.18;3.50;;;19.90;99.90;;;;;;5037463;28;20058;-77
2023/05/28 12:27:34;;;;;;;13.77;3.85;;;20.00;99.90;;;;;;5057233;28;20519;-77
2023/05/28 12:30:00;;;;;;;11.57;3.60;;;19.90;99.90;;;;;;5027108;28;20098;-78
2023/05/28 12:32:26;;;;;;;13.65;4.25;;;19.90;99.90;;;;;;5041608;28;20079;-78
2023/05/28 12:34:56;;;;;;;10.38;3.60;;;19.90;99.90;;;;;;5038113;28;20067;-77
2023/05/28 12:37:25;;;;;;;12.90;4.22;;;19.90;99.90;;;;;;5036111;28;20052;-80
2023/05/28 12:39:53;;;;;;;12.95;4.50;;;19.80;99.90;;;;;;5015909;28;20048;-81